createdAt,value
2019-05-16T00:02:15.762Z,35.60
2019-05-16T00:04:48.152Z,38.35
2019-05-16T00:07:19.388Z,37.08
2019-05-16T00:09:50.481Z,37.50
2019-05-16T00:12:21.521Z,40.08
2019-05-16T00:14:52.382Z,38.75
2019-05-16T00:17:23.376Z,40.20
2019-05-16T00:19:54.415Z,38.83
2019-05-16T00:22:25.364Z,41.50
2019-05-16T00:24:57.989Z,39.53
2019-05-16T00:27:28.727Z,38.70
2019-05-16T00:29:59.579Z,34.27
2019-05-16T00:32:30.623Z,28.87
2019-05-16T00:35:01.480Z,24.20
2019-05-16T00:37:32.353Z,23.67
2019-05-16T00:40:03.518Z,28.65
2019-05-16T00:42:34.167Z,26.93
2019-05-16T00:45:09.219Z,24.37
2019-05-16T00:47:40.173Z,29.30
2019-05-16T00:50:11.422Z,27.75
2019-05-16T00:52:42.601Z,26.90
2019-05-16T00:55:14.582Z,26.52
2019-05-16T00:57:48.197Z,27.98
2019-05-16T01:00:21.701Z,26.40
2019-05-16T01:02:52.570Z,24.70
2019-05-16T01:05:23.632Z,24.65
2019-05-16T01:07:54.590Z,23.73
2019-05-16T01:10:25.532Z,21.65
2019-05-16T01:12:58.413Z,19.57
2019-05-16T01:15:28.855Z,21.30
2019-05-16T01:17:59.940Z,21.25
2019-05-16T01:20:31.017Z,17.75
2019-05-16T01:23:02.079Z,18.80
2019-05-16T01:25:33.036Z,18.12
2019-05-16T01:28:03.876Z,24.52
2019-05-16T01:30:34.957Z,22.87
2019-05-16T01:33:08.656Z,23.25
2019-05-16T01:35:38.709Z,23.22
2019-05-16T01:38:09.568Z,23.75
2019-05-16T01:40:40.510Z,23.30
2019-05-16T01:43:11.467Z,23.98
2019-05-16T01:45:42.340Z,23.45
2019-05-16T01:48:14.850Z,23.00
2019-05-16T01:50:47.940Z,22.48
2019-05-16T01:53:18.132Z,22.17
2019-05-16T01:55:49.550Z,20.92
2019-05-16T01:58:20.503Z,21.87
2019-05-16T02:01:03.258Z,21.93
2019-05-16T02:03:23.859Z,21.48
2019-05-16T02:05:54.915Z,22.02
2019-05-16T02:08:25.858Z,22.02
2019-05-16T02:10:58.406Z,22.27
2019-05-16T02:13:29.841Z,22.40
2019-05-16T02:16:00.897Z,22.45
2019-05-16T02:18:31.857Z,21.90
2019-05-16T02:21:02.698Z,20.72
2019-05-16T02:23:33.773Z,20.48
2019-05-16T02:26:04.733Z,21.52
2019-05-16T02:28:40.120Z,19.98
2019-05-16T02:31:11.959Z,21.57
2019-05-16T02:33:40.777Z,21.52
2019-05-16T02:36:11.840Z,20.32
2019-05-16T02:38:42.697Z,19.85
2019-05-16T02:41:13.855Z,20.68
2019-05-16T02:43:44.496Z,20.10
2019-05-16T02:46:15.245Z,19.95
2019-05-16T02:48:46.424Z,18.50
2019-05-16T02:51:17.076Z,19.73
2019-05-16T02:53:50.889Z,19.73
2019-05-16T02:56:21.587Z,20.25
2019-05-16T02:58:52.716Z,19.48
2019-05-16T03:01:23.569Z,19.32
2019-05-16T03:03:54.635Z,18.00
2019-05-16T03:06:27.297Z,16.20
2019-05-16T03:09:01.846Z,15.15
2019-05-16T03:11:32.210Z,14.25
2019-05-16T03:14:05.313Z,14.47
2019-05-16T03:16:41.550Z,13.85
2019-05-16T03:19:13.573Z,12.90
2019-05-16T03:21:45.046Z,12.95
2019-05-16T03:24:16.109Z,13.85
2019-05-16T03:26:46.943Z,14.85
2019-05-16T03:29:17.817Z,13.60
2019-05-16T03:31:53.662Z,12.20
2019-05-16T03:34:25.312Z,11.70
2019-05-16T03:36:54.895Z,12.30
2019-05-16T03:39:25.824Z,12.53
2019-05-16T03:41:56.809Z,12.93
2019-05-16T03:44:31.468Z,14.03
2019-05-16T03:47:01.132Z,14.70
2019-05-16T03:49:31.810Z,14.05
2019-05-16T03:52:02.804Z,14.93
2019-05-16T03:54:33.843Z,14.70
2019-05-16T03:57:04.689Z,14.75
2019-05-16T03:59:35.554Z,14.20
2019-05-16T04:02:06.624Z,15.20
2019-05-16T04:04:37.567Z,15.83
2019-05-16T04:07:11.014Z,14.95
2019-05-16T04:09:41.470Z,16.25
2019-05-16T04:12:12.377Z,14.50
2019-05-16T04:14:43.437Z,14.65
2019-05-16T04:17:14.314Z,14.40
2019-05-16T04:19:45.271Z,14.70
2019-05-16T04:22:16.122Z,14.07
2019-05-16T04:24:47.166Z,14.95
2019-05-16T04:27:21.209Z,14.25
2019-05-16T04:29:51.360Z,13.40
2019-05-16T04:32:22.415Z,12.60
2019-05-16T04:34:53.453Z,13.40
2019-05-16T04:37:26.371Z,11.03
2019-05-16T04:39:57.258Z,11.30
2019-05-16T04:42:30.766Z,9.73
2019-05-16T04:45:01.052Z,10.03
2019-05-16T04:47:32.237Z,8.05
2019-05-16T04:50:03.301Z,8.30
2019-05-16T04:52:34.154Z,6.50
2019-05-16T04:55:07.059Z,6.10
2019-05-16T04:57:41.977Z,6.85
2019-05-16T05:00:11.774Z,6.87
2019-05-16T05:02:42.908Z,6.62
2019-05-16T05:05:14.145Z,7.00
2019-05-16T05:07:45.034Z,7.05
2019-05-16T05:10:16.288Z,6.15
2019-05-16T05:12:46.853Z,7.50
2019-05-16T05:15:21.043Z,6.45
2019-05-16T05:17:50.799Z,5.53
2019-05-16T05:20:21.560Z,6.53
2019-05-16T05:22:52.403Z,5.92
2019-05-16T05:25:23.483Z,6.20
2019-05-16T05:27:55.976Z,5.80
2019-05-16T05:30:54.341Z,4.83
2019-05-16T05:33:25.404Z,4.97
2019-05-16T05:35:56.369Z,4.22
2019-05-16T05:38:27.298Z,4.45
2019-05-16T05:41:00.205Z,4.25
2019-05-16T05:43:30.749Z,4.33
2019-05-16T05:46:01.834Z,4.12
2019-05-16T05:48:32.788Z,3.67
2019-05-16T05:51:03.850Z,4.00
2019-05-16T05:53:34.687Z,3.65
2019-05-16T05:56:05.646Z,3.67
2019-05-16T05:58:37.748Z,3.75
2019-05-16T06:01:11.192Z,3.05
2019-05-16T06:03:40.991Z,3.70
2019-05-16T06:06:11.952Z,3.08
2019-05-16T06:08:43.012Z,3.00
2019-05-16T06:11:14.069Z,3.30
2019-05-16T06:13:44.927Z,3.50
2019-05-16T06:16:16.000Z,3.27
2019-05-16T06:18:46.946Z,2.40
2019-05-16T06:21:20.276Z,2.55
2019-05-16T06:23:51.062Z,2.75
2019-05-16T06:26:21.871Z,2.95
2019-05-16T06:28:52.723Z,2.95
2019-05-16T06:31:23.459Z,2.90
2019-05-16T06:33:54.541Z,2.60
2019-05-16T06:36:25.376Z,2.25
2019-05-16T06:38:56.336Z,5.00
2019-05-16T06:41:27.190Z,3.83
2019-05-16T06:43:59.948Z,3.72
2019-05-16T06:46:30.779Z,2.98
2019-05-16T06:49:01.823Z,2.58
2019-05-16T06:51:32.766Z,2.80
2019-05-16T06:54:03.640Z,3.15
2019-05-16T06:56:34.695Z,2.40
2019-05-16T06:59:06.660Z,2.80
2019-05-16T07:01:40.007Z,2.47
2019-05-16T07:04:10.591Z,2.45
2019-05-16T07:06:54.737Z,2.45
2019-05-16T07:09:13.887Z,2.02
2019-05-16T07:11:45.051Z,2.72
2019-05-16T07:14:15.741Z,4.00
2019-05-16T07:16:49.742Z,3.40
2019-05-16T07:19:20.830Z,3.87
2019-05-16T07:21:51.952Z,4.08
2019-05-16T07:24:23.021Z,3.15
2019-05-16T07:26:53.870Z,2.75
2019-05-16T07:29:26.362Z,2.75
2019-05-16T07:32:01.843Z,2.33
2019-05-16T07:34:33.186Z,2.87
2019-05-16T07:37:04.351Z,2.42
2019-05-16T07:39:39.306Z,4.03
2019-05-16T07:42:16.527Z,2.33
2019-05-16T07:44:50.622Z,2.30
2019-05-16T07:47:23.422Z,2.80
2019-05-16T07:50:01.419Z,2.50
2019-05-16T07:52:36.452Z,2.55
2019-05-16T07:55:06.123Z,2.98
2019-05-16T07:57:47.401Z,3.15
2019-05-16T08:00:45.873Z,2.87
2019-05-16T08:05:41.946Z,3.05
2019-05-16T08:08:13.024Z,2.72
2019-05-16T08:10:46.715Z,2.40
2019-05-16T08:13:17.697Z,3.22
2019-05-16T08:15:50.286Z,3.17
2019-05-16T08:18:21.775Z,2.67
2019-05-16T08:20:52.946Z,2.98
2019-05-16T08:23:24.198Z,2.77
2019-05-16T08:25:55.036Z,3.17
2019-05-16T08:28:25.916Z,2.92
2019-05-16T08:30:56.849Z,3.27
2019-05-16T08:33:27.824Z,3.35
2019-05-16T08:36:02.931Z,3.20
2019-05-16T08:38:31.488Z,3.02
2019-05-16T08:41:10.981Z,3.92
2019-05-16T08:43:34.810Z,3.30
2019-05-16T08:46:05.990Z,3.37
2019-05-16T08:48:36.953Z,3.30
2019-05-16T08:51:08.122Z,3.35
2019-05-16T08:53:43.467Z,3.02
2019-05-16T08:56:22.130Z,2.67
2019-05-16T08:58:54.980Z,3.27
2019-05-16T09:01:27.084Z,3.40
2019-05-16T09:04:04.545Z,2.90
2019-05-16T09:06:52.491Z,3.20
2019-05-16T09:09:42.637Z,3.72
2019-05-16T09:12:07.933Z,3.10
2019-05-16T09:14:41.354Z,3.50
2019-05-16T09:17:12.220Z,3.42
2019-05-16T09:19:43.270Z,3.65
2019-05-16T09:22:17.978Z,3.25
2019-05-16T09:24:48.568Z,2.90
2019-05-16T09:27:19.524Z,2.90
2019-05-16T09:29:50.580Z,2.83
2019-05-16T09:32:21.989Z,3.08
2019-05-16T09:34:59.554Z,3.15
2019-05-16T09:37:30.219Z,3.05
2019-05-16T09:40:12.755Z,3.45
2019-05-16T09:42:52.773Z,2.75
2019-05-16T09:45:27.476Z,3.22
2019-05-16T09:47:59.820Z,3.35
2019-05-16T09:50:30.980Z,3.02
2019-05-16T09:53:01.528Z,3.08
2019-05-16T09:55:32.484Z,3.27
2019-05-16T09:58:07.107Z,3.65
2019-05-16T10:00:37.539Z,3.30
2019-05-16T10:03:14.084Z,2.98
2019-05-16T10:05:46.694Z,3.27
2019-05-16T10:08:23.543Z,3.62
2019-05-16T10:13:47.087Z,3.35
2019-05-16T10:16:20.758Z,3.30
2019-05-16T10:18:51.491Z,3.15
2019-05-16T10:21:22.452Z,3.17
2019-05-16T10:23:53.431Z,3.02
2019-05-16T10:26:27.460Z,2.87
2019-05-16T10:28:57.780Z,3.15
2019-05-16T10:31:41.502Z,2.83
2019-05-16T10:34:01.025Z,2.42
2019-05-16T10:36:32.120Z,2.70
2019-05-16T10:39:03.472Z,2.35
2019-05-16T10:41:34.025Z,2.10
2019-05-16T10:44:06.251Z,2.25
2019-05-16T10:46:37.623Z,2.30
2019-05-16T10:49:08.544Z,2.27
2019-05-16T10:51:39.397Z,2.25
2019-05-16T10:54:13.956Z,2.75
2019-05-16T10:56:46.986Z,2.52
2019-05-16T11:01:51.797Z,2.00
2019-05-16T11:04:33.474Z,2.30
2019-05-16T11:06:57.212Z,2.10
2019-05-16T11:09:28.065Z,2.15
2019-05-16T11:11:59.124Z,2.55
2019-05-16T11:14:31.602Z,1.92
2019-05-16T11:17:02.679Z,2.05
2019-05-16T11:19:33.640Z,2.20
2019-05-16T11:22:04.479Z,2.50
2019-05-16T11:24:37.779Z,1.90
2019-05-16T11:27:07.926Z,2.20
2019-05-16T11:29:39.003Z,2.20
2019-05-16T11:32:09.963Z,2.42
2019-05-16T11:34:40.804Z,2.08
2019-05-16T11:37:11.882Z,1.80
2019-05-16T11:39:42.839Z,2.17
2019-05-16T11:42:13.901Z,2.33
2019-05-16T11:44:47.612Z,2.30
2019-05-16T11:47:17.062Z,2.70
2019-05-16T11:49:47.884Z,2.47
2019-05-16T11:52:18.740Z,2.27
2019-05-16T11:54:49.614Z,2.30
2019-05-16T11:57:20.674Z,2.40
2019-05-16T11:59:51.629Z,2.70
2019-05-16T12:02:23.713Z,2.50
2019-05-16T12:04:57.748Z,2.25
2019-05-16T12:07:33.243Z,1.75
2019-05-16T12:09:59.499Z,2.47
2019-05-16T12:12:30.395Z,2.58
2019-05-16T12:15:01.369Z,2.20
2019-05-16T12:17:32.311Z,2.10
2019-05-16T12:20:03.392Z,2.80
2019-05-16T12:22:34.230Z,2.45
2019-05-16T12:25:08.209Z,2.20
2019-05-16T12:27:42.213Z,2.20
2019-05-16T12:30:13.596Z,2.60
2019-05-16T12:32:47.898Z,2.00
2019-05-16T12:35:19.103Z,2.25
2019-05-16T12:37:51.898Z,2.17
2019-05-16T12:40:22.510Z,2.00
2019-05-16T12:42:54.409Z,2.87
2019-05-16T12:45:27.540Z,2.52
2019-05-16T12:47:58.250Z,2.30
2019-05-16T12:50:29.214Z,2.60
2019-05-16T12:53:00.046Z,2.45
2019-05-16T12:55:31.126Z,2.40
2019-05-16T12:58:13.586Z,2.25
2019-05-16T13:00:44.032Z,2.27
2019-05-16T13:03:15.661Z,2.58
2019-05-16T13:05:47.792Z,2.33
2019-05-16T13:08:27.014Z,2.37
2019-05-16T13:10:58.018Z,2.62
2019-05-16T13:13:28.986Z,2.30
2019-05-16T13:16:00.092Z,2.40
2019-05-16T13:18:31.028Z,2.47
2019-05-16T13:21:01.969Z,2.72
2019-05-16T13:23:32.738Z,2.47
2019-05-16T13:26:03.973Z,2.10
2019-05-16T13:28:34.535Z,2.25
2019-05-16T13:31:08.869Z,2.17
2019-05-16T13:33:39.437Z,2.65
2019-05-16T13:36:10.508Z,2.62
2019-05-16T13:38:41.346Z,2.60
2019-05-16T13:41:12.209Z,2.33
2019-05-16T13:43:43.272Z,2.47
2019-05-16T13:46:14.238Z,2.05
2019-05-16T13:48:45.285Z,1.87
2019-05-16T13:51:18.981Z,1.65
2019-05-16T13:53:48.516Z,2.50
2019-05-16T13:56:19.617Z,2.40
2019-05-16T13:58:50.438Z,2.25
2019-05-16T14:01:22.247Z,2.10
2019-05-16T14:03:53.269Z,2.20
2019-05-16T14:06:24.334Z,2.08
2019-05-16T14:08:56.768Z,2.62
2019-05-16T14:11:27.697Z,2.35
2019-05-16T14:13:58.537Z,2.75
2019-05-16T14:16:29.609Z,2.80
2019-05-16T14:19:00.672Z,2.67
2019-05-16T14:21:31.630Z,2.45
2019-05-16T14:24:02.469Z,2.85
2019-05-16T14:26:33.555Z,2.87
2019-05-16T14:29:04.739Z,3.25
2019-05-16T14:31:37.726Z,3.60
2019-05-16T14:34:08.162Z,3.25
2019-05-16T14:36:39.223Z,2.75
2019-05-16T14:39:10.183Z,2.87
2019-05-16T14:41:41.036Z,2.77
2019-05-16T14:44:12.204Z,2.58
2019-05-16T14:46:42.733Z,3.25
2019-05-16T14:49:13.491Z,3.45
2019-05-16T14:51:47.582Z,3.00
2019-05-16T14:54:18.795Z,3.10
2019-05-16T14:56:49.965Z,3.05
2019-05-16T14:59:21.000Z,2.95
2019-05-16T15:01:52.810Z,2.87
2019-05-16T15:04:29.810Z,2.90
2019-05-16T15:06:57.392Z,3.35
2019-05-16T15:09:28.230Z,3.75
2019-05-16T15:11:58.984Z,3.98
2019-05-16T15:14:29.922Z,3.83
2019-05-16T15:17:00.778Z,4.00
2019-05-16T15:19:31.686Z,3.85
2019-05-16T15:22:02.763Z,3.47
2019-05-16T15:24:33.787Z,3.50
2019-05-16T15:27:07.902Z,3.92
2019-05-16T15:29:37.828Z,3.90
2019-05-16T15:32:09.002Z,3.98
2019-05-16T15:34:39.960Z,3.80
2019-05-16T15:37:11.022Z,3.62
2019-05-16T15:39:41.979Z,3.62
2019-05-16T15:42:13.039Z,3.90
2019-05-16T15:44:43.877Z,3.62
2019-05-16T15:47:17.430Z,3.75
2019-05-16T15:49:47.922Z,3.30
2019-05-16T15:52:19.205Z,4.28
2019-05-16T15:54:50.899Z,3.72
2019-05-16T15:57:21.533Z,3.50
2019-05-16T15:59:52.515Z,3.52
2019-05-16T16:02:23.448Z,4.20
2019-05-16T16:04:57.558Z,3.90
2019-05-16T16:07:27.928Z,4.05
2019-05-16T16:09:58.680Z,4.22
2019-05-16T16:12:29.761Z,4.83
2019-05-16T16:15:00.606Z,4.47
2019-05-16T16:17:31.553Z,4.08
2019-05-16T16:20:02.587Z,4.53
2019-05-16T16:22:33.695Z,5.22
2019-05-16T16:25:06.861Z,5.33
2019-05-16T16:27:38.062Z,4.97
2019-05-16T16:30:09.313Z,5.08
2019-05-16T16:32:40.085Z,5.55
2019-05-16T16:35:14.013Z,5.05
2019-05-16T16:37:46.955Z,4.78
2019-05-16T16:40:18.393Z,5.03
2019-05-16T16:42:49.033Z,5.65
2019-05-16T16:45:20.418Z,5.67
2019-05-16T16:47:52.993Z,4.97
2019-05-16T16:50:26.566Z,5.75
2019-05-16T16:52:57.261Z,5.90
2019-05-16T16:55:28.424Z,5.70
2019-05-16T16:58:02.450Z,5.08
2019-05-16T17:00:33.390Z,5.25
2019-05-16T17:03:07.201Z,5.05
2019-05-16T17:05:37.316Z,5.55
2019-05-16T17:08:08.415Z,5.08
2019-05-16T17:10:39.494Z,6.60
2019-05-16T17:13:11.842Z,6.40
2019-05-16T17:15:42.432Z,5.95
2019-05-16T17:18:13.495Z,6.20
2019-05-16T17:20:44.331Z,6.90
2019-05-16T17:23:17.122Z,6.53
2019-05-16T17:25:47.495Z,7.10
2019-05-16T17:28:18.458Z,7.00
2019-05-16T17:30:49.309Z,7.15
2019-05-16T17:33:20.373Z,6.47
2019-05-16T17:35:51.215Z,6.00
2019-05-16T17:38:21.964Z,6.42
2019-05-16T17:40:53.041Z,5.53
2019-05-16T17:43:23.998Z,5.75
2019-05-16T17:45:57.302Z,5.30
2019-05-16T17:48:29.936Z,5.58
2019-05-16T17:51:00.664Z,5.75
2019-05-16T17:53:31.497Z,5.17
2019-05-16T17:56:06.871Z,5.72
2019-05-16T17:58:37.831Z,5.53
2019-05-16T18:01:09.725Z,5.22
2019-05-16T18:03:40.663Z,5.08
2019-05-16T18:06:12.628Z,4.85
2019-05-16T18:08:46.651Z,5.25
2019-05-16T18:11:18.667Z,5.55
2019-05-16T18:13:50.122Z,5.53
2019-05-16T18:16:21.185Z,5.33
2019-05-16T18:18:52.042Z,5.10
2019-05-16T18:21:24.515Z,6.03
2019-05-16T18:23:55.448Z,5.12
2019-05-16T18:26:28.993Z,5.28
2019-05-16T18:28:59.557Z,5.65
2019-05-16T18:31:32.286Z,5.80
2019-05-16T18:34:03.316Z,5.40
2019-05-16T18:36:34.375Z,6.33
2019-05-16T18:39:11.044Z,5.25
2019-05-16T18:41:43.538Z,5.60
2019-05-16T18:44:17.782Z,6.17
2019-05-16T18:47:03.958Z,5.00
2019-05-16T18:49:24.107Z,5.95
2019-05-16T18:51:56.928Z,5.97
2019-05-16T18:54:30.724Z,6.05
2019-05-16T18:57:01.670Z,5.67
2019-05-16T18:59:36.909Z,5.50
2019-05-16T19:02:10.209Z,6.10
2019-05-16T19:04:40.266Z,5.80
2019-05-16T19:07:17.613Z,6.83
2019-05-16T19:09:50.078Z,6.47
2019-05-16T19:12:23.401Z,6.10
2019-05-16T19:14:57.185Z,6.03
2019-05-16T19:17:28.457Z,6.72
2019-05-16T19:19:59.332Z,5.58
2019-05-16T19:22:30.378Z,6.30
2019-05-16T19:25:01.558Z,6.62
2019-05-16T19:27:37.039Z,6.80
2019-05-16T19:30:09.405Z,6.40
2019-05-16T19:32:40.464Z,6.30
2019-05-16T19:35:13.427Z,7.47
2019-05-16T19:37:44.311Z,6.85
2019-05-16T19:40:17.327Z,7.10
2019-05-16T19:42:48.079Z,6.83
2019-05-16T19:45:19.531Z,6.08
2019-05-16T19:47:50.493Z,6.70
2019-05-16T19:50:23.775Z,7.70
2019-05-16T19:52:57.536Z,6.33
2019-05-16T19:55:28.380Z,6.75
2019-05-16T19:57:59.250Z,6.15
2019-05-16T20:00:31.967Z,6.30
2019-05-16T20:03:07.696Z,6.85
2019-05-16T20:05:38.593Z,7.22
2019-05-16T20:08:09.527Z,6.85
2019-05-16T20:10:49.691Z,7.03
2019-05-16T20:13:20.942Z,6.55
2019-05-16T20:15:51.819Z,7.00
2019-05-16T20:18:22.872Z,6.85
2019-05-16T20:20:56.755Z,7.40
2019-05-16T20:23:27.827Z,7.50
2019-05-16T20:25:58.918Z,7.65
2019-05-16T20:28:29.765Z,8.10
2019-05-16T20:31:00.843Z,7.83
2019-05-16T20:33:31.897Z,8.10
2019-05-16T20:36:02.836Z,7.58
2019-05-16T20:38:33.916Z,9.55
2019-05-16T20:41:07.602Z,8.15
2019-05-16T20:43:37.860Z,9.05
2019-05-16T20:46:08.942Z,8.43
2019-05-16T20:49:07.779Z,8.10
2019-05-16T20:51:38.994Z,8.05
2019-05-16T20:54:09.724Z,8.48
2019-05-16T20:56:40.252Z,8.00
2019-05-16T20:59:11.052Z,9.30
2019-05-16T21:01:41.965Z,9.33
2019-05-16T21:04:12.687Z,8.75
2019-05-16T21:06:56.772Z,8.75
2019-05-16T21:09:17.012Z,9.30
2019-05-16T21:11:50.118Z,8.53
2019-05-16T21:14:20.360Z,10.00
2019-05-16T21:16:51.196Z,9.88
2019-05-16T21:19:22.053Z,10.20
2019-05-16T21:21:52.910Z,9.43
2019-05-16T21:24:23.764Z,9.53
2019-05-16T21:26:54.696Z,9.90
2019-05-16T21:29:27.628Z,9.40
2019-05-16T21:31:58.174Z,9.13
2019-05-16T21:34:28.924Z,9.73
2019-05-16T21:37:11.226Z,9.88
2019-05-16T21:39:32.175Z,10.48
2019-05-16T21:42:03.150Z,9.63
2019-05-16T21:44:33.781Z,9.55
2019-05-16T21:47:04.845Z,10.10
2019-05-16T21:49:36.980Z,10.05
2019-05-16T21:52:08.076Z,10.82
2019-05-16T21:54:38.890Z,10.23
2019-05-16T21:57:09.787Z,9.78
2019-05-16T21:59:40.700Z,10.72
2019-05-16T22:02:11.824Z,10.65
2019-05-16T22:04:42.679Z,10.88
2019-05-16T22:07:13.739Z,10.60
2019-05-16T22:09:46.589Z,10.18
2019-05-16T22:12:17.518Z,10.30
2019-05-16T22:14:52.815Z,9.93
2019-05-16T22:17:23.308Z,10.88
2019-05-16T22:19:56.251Z,10.40
2019-05-16T22:22:29.825Z,10.65
2019-05-16T22:24:58.974Z,11.50
2019-05-16T22:27:29.998Z,11.33
2019-05-16T22:30:00.897Z,11.43
2019-05-16T22:32:31.918Z,12.07
2019-05-16T22:35:02.569Z,11.88
2019-05-16T22:37:46.156Z,11.12
2019-05-16T22:40:09.085Z,10.95
2019-05-16T22:42:39.534Z,11.22
2019-05-16T22:45:12.197Z,11.28
2019-05-16T22:47:42.777Z,11.80
2019-05-16T22:50:17.652Z,12.25
2019-05-16T22:52:47.659Z,11.03
2019-05-16T22:55:18.975Z,11.03
2019-05-16T22:57:49.885Z,11.73
2019-05-16T23:00:22.889Z,11.50
2019-05-16T23:02:53.834Z,12.45
2019-05-16T23:05:27.230Z,12.28
2019-05-16T23:08:04.963Z,12.13
2019-05-16T23:10:30.198Z,12.95
2019-05-16T23:13:00.852Z,12.73
2019-05-16T23:15:31.604Z,12.47
2019-05-16T23:18:02.666Z,14.00
2019-05-16T23:20:33.565Z,13.48
2019-05-16T23:23:06.898Z,14.53
2019-05-16T23:25:37.257Z,13.88
2019-05-16T23:28:08.034Z,12.82
2019-05-16T23:30:38.891Z,14.20
2019-05-16T23:33:09.848Z,13.75
2019-05-16T23:35:43.205Z,14.18
2019-05-16T23:38:19.461Z,15.00
2019-05-16T23:40:46.913Z,14.18
2019-05-16T23:43:17.571Z,14.23
2019-05-16T23:45:48.527Z,15.83
2019-05-16T23:48:19.483Z,15.35
2019-05-16T23:50:50.342Z,14.33
2019-05-16T23:53:21.196Z,14.43
2019-05-16T23:55:51.953Z,15.32
2019-05-16T23:58:22.658Z,15.15
